createdAt,value
2022-08-01T00:02:01.912Z,18.00
2022-08-01T00:04:28.811Z,18.00
2022-08-01T00:06:55.509Z,18.00
2022-08-01T00:09:23.751Z,18.00
2022-08-01T00:11:59.521Z,17.90
2022-08-01T00:14:32.076Z,18.00
2022-08-01T00:17:02.595Z,17.90
2022-08-01T00:19:33.968Z,17.90
2022-08-01T00:22:00.713Z,17.90
2022-08-01T00:24:27.453Z,17.90
2022-08-01T00:26:54.074Z,17.90
2022-08-01T00:30:12.381Z,17.90
2022-08-01T00:32:07.748Z,17.90
2022-08-01T00:34:35.052Z,17.90
2022-08-01T00:37:01.804Z,17.90
2022-08-01T00:39:28.465Z,17.80
2022-08-01T00:41:59.334Z,17.80
2022-08-01T00:44:27.161Z,17.70
2022-08-01T00:46:53.788Z,17.80
2022-08-01T00:49:20.657Z,17.70
2022-08-01T00:51:47.407Z,17.70
2022-08-01T00:54:16.594Z,17.70
2022-08-01T00:56:43.701Z,17.60
2022-08-01T00:59:12.003Z,17.60
2022-08-01T01:01:40.981Z,17.50
2022-08-01T01:04:13.359Z,17.50
2022-08-01T01:06:40.713Z,17.40
2022-08-01T01:09:07.335Z,17.40
2022-08-01T01:11:39.657Z,17.30
2022-08-01T01:14:10.012Z,17.40
2022-08-01T01:16:38.606Z,17.30
2022-08-01T01:19:09.645Z,17.30
2022-08-01T01:21:47.248Z,17.40
2022-08-01T01:24:13.879Z,17.30
2022-08-01T01:26:53.455Z,17.30
2022-08-01T01:29:31.498Z,17.30
2022-08-01T01:32:20.668Z,17.30
2022-08-01T01:34:57.650Z,17.20
2022-08-01T01:37:26.151Z,17.20
2022-08-01T01:39:54.035Z,17.20
2022-08-01T01:42:21.877Z,17.20
2022-08-01T01:44:49.229Z,17.20
2022-08-01T01:47:17.265Z,17.20
2022-08-01T01:49:45.189Z,17.20
2022-08-01T01:52:13.589Z,17.20
2022-08-01T01:54:41.566Z,17.10
2022-08-01T01:57:09.717Z,17.00
2022-08-01T01:59:38.681Z,17.00
2022-08-01T02:02:07.067Z,17.10
2022-08-01T02:04:36.932Z,17.10
2022-08-01T02:07:03.949Z,17.10
2022-08-01T02:09:32.064Z,17.10
2022-08-01T02:12:08.713Z,17.20
2022-08-01T02:14:36.638Z,17.20
2022-08-01T02:17:05.164Z,17.10
2022-08-01T02:19:32.940Z,17.10
2022-08-01T02:22:11.604Z,17.00
2022-08-01T02:24:41.240Z,17.10
2022-08-01T02:27:10.017Z,17.10
2022-08-01T02:29:56.918Z,17.10
2022-08-01T02:32:52.704Z,17.00
2022-08-01T02:35:23.577Z,17.00
2022-08-01T02:37:50.810Z,16.90
2022-08-01T02:40:18.351Z,16.90
2022-08-01T02:42:48.448Z,16.90
2022-08-01T02:45:18.233Z,16.90
2022-08-01T02:47:44.998Z,16.90
2022-08-01T02:50:13.395Z,16.80
2022-08-01T02:52:41.128Z,16.80
2022-08-01T02:55:09.335Z,16.70
2022-08-01T02:57:52.173Z,16.70
2022-08-01T03:00:19.981Z,16.80
2022-08-01T03:02:49.471Z,16.80
2022-08-01T03:05:18.117Z,16.80
2022-08-01T03:07:44.949Z,16.80
2022-08-01T03:10:17.067Z,16.80
2022-08-01T03:12:44.878Z,16.70
2022-08-01T03:15:14.076Z,16.60
2022-08-01T03:17:42.182Z,16.70
2022-08-01T03:20:11.800Z,16.70
2022-08-01T03:22:39.905Z,16.70
2022-08-01T03:25:07.286Z,16.70
2022-08-01T03:27:34.177Z,16.60
2022-08-01T03:30:03.364Z,16.50
2022-08-01T03:32:30.915Z,16.50
2022-08-01T03:34:58.276Z,16.50
2022-08-01T03:37:28.933Z,16.50
2022-08-01T03:40:03.155Z,16.50
2022-08-01T03:42:34.149Z,16.40
2022-08-01T03:45:04.748Z,16.40
2022-08-01T03:47:33.579Z,16.30
2022-08-01T03:50:03.042Z,16.30
2022-08-01T03:52:31.437Z,16.30
2022-08-01T03:54:59.540Z,16.30
2022-08-01T03:57:35.529Z,16.30
2022-08-01T04:00:07.230Z,16.20
2022-08-01T04:02:39.421Z,16.30
2022-08-01T04:05:06.505Z,16.20
2022-08-01T04:07:36.547Z,16.10
2022-08-01T04:10:03.627Z,16.10
2022-08-01T04:12:30.283Z,16.00
2022-08-01T04:14:57.009Z,16.10
2022-08-01T04:17:23.676Z,16.20
2022-08-01T04:19:50.386Z,16.20
2022-08-01T04:22:17.220Z,16.10
2022-08-01T04:24:53.347Z,16.20
2022-08-01T04:27:51.510Z,16.10
2022-08-01T04:30:12.577Z,16.20
2022-08-01T04:32:45.889Z,16.10
2022-08-01T04:35:23.426Z,16.20
2022-08-01T04:38:02.625Z,16.20
2022-08-01T04:40:29.459Z,16.20
2022-08-01T04:42:56.580Z,16.30
2022-08-01T04:45:23.363Z,16.30
2022-08-01T04:47:50.270Z,16.40
2022-08-01T04:50:17.285Z,16.30
2022-08-01T04:52:43.896Z,16.30
2022-08-01T04:55:11.205Z,16.30
2022-08-01T04:57:39.900Z,16.30
2022-08-01T05:00:07.511Z,16.30
2022-08-01T05:02:34.154Z,16.30
2022-08-01T05:05:00.905Z,16.30
2022-08-01T05:07:27.535Z,16.40
2022-08-01T05:09:54.223Z,16.30
2022-08-01T05:12:21.672Z,16.30
2022-08-01T05:14:48.340Z,16.40
2022-08-01T05:17:15.018Z,16.50
2022-08-01T05:19:43.867Z,16.60
2022-08-01T05:22:10.684Z,16.60
2022-08-01T05:24:40.185Z,16.50
2022-08-01T05:27:08.831Z,16.50
2022-08-01T05:29:43.999Z,16.50
2022-08-01T05:32:11.206Z,16.60
2022-08-01T05:34:37.868Z,16.60
2022-08-01T05:37:04.550Z,16.70
2022-08-01T05:39:31.490Z,16.80
2022-08-01T05:41:58.139Z,16.90
2022-08-01T05:44:25.054Z,16.90
2022-08-01T05:46:51.920Z,16.90
2022-08-01T05:49:18.902Z,17.10
2022-08-01T05:51:45.604Z,17.10
2022-08-01T05:54:12.289Z,17.20
2022-08-01T05:56:38.954Z,17.30
2022-08-01T05:59:05.752Z,17.40
2022-08-01T06:01:32.420Z,17.50
2022-08-01T06:03:59.059Z,17.60
2022-08-01T06:06:25.745Z,17.70
2022-08-01T06:08:52.941Z,17.80
2022-08-01T06:11:19.810Z,18.10
2022-08-01T06:13:48.702Z,18.10
2022-08-01T06:16:16.060Z,18.30
2022-08-01T06:18:42.783Z,18.50
2022-08-01T06:21:09.542Z,18.70
2022-08-01T06:23:38.382Z,18.90
2022-08-01T06:26:05.261Z,19.00
2022-08-01T06:28:31.999Z,19.20
2022-08-01T06:31:00.091Z,19.30
2022-08-01T06:33:27.630Z,19.50
2022-08-01T06:35:54.432Z,19.60
2022-08-01T06:38:21.084Z,19.80
2022-08-01T06:40:47.927Z,20.10
2022-08-01T06:43:14.661Z,20.30
2022-08-01T06:45:41.397Z,20.50
2022-08-01T06:48:08.083Z,20.60
2022-08-01T06:50:36.688Z,20.70
2022-08-01T06:53:03.770Z,20.90
2022-08-01T06:55:30.640Z,21.00
2022-08-01T06:57:57.360Z,21.10
2022-08-01T07:00:25.174Z,21.30
2022-08-01T07:02:56.785Z,21.40
2022-08-01T07:05:23.551Z,21.60
2022-08-01T07:07:50.330Z,21.80
2022-08-01T07:10:17.448Z,21.90
2022-08-01T07:12:44.341Z,22.00
2022-08-01T07:15:11.528Z,22.10
2022-08-01T07:17:39.533Z,22.30
2022-08-01T07:20:07.326Z,22.40
2022-08-01T07:22:37.708Z,22.50
2022-08-01T07:25:05.907Z,22.50
2022-08-01T07:27:32.814Z,22.60
2022-08-01T07:29:59.497Z,22.70
2022-08-01T07:32:26.230Z,22.80
2022-08-01T07:34:52.921Z,22.80
2022-08-01T07:37:47.196Z,22.90
2022-08-01T07:40:06.663Z,22.90
2022-08-01T07:42:33.285Z,23.00
2022-08-01T07:44:59.934Z,23.10
2022-08-01T07:47:26.869Z,23.10
2022-08-01T07:49:59.699Z,23.20
2022-08-01T07:52:27.886Z,23.20
2022-08-01T07:54:54.883Z,23.30
2022-08-01T07:57:21.568Z,23.30
2022-08-01T07:59:48.219Z,23.30
2022-08-01T08:02:15.142Z,23.30
2022-08-01T08:04:44.668Z,23.40
2022-08-01T08:07:15.130Z,23.50
2022-08-01T08:09:41.810Z,23.60
2022-08-01T08:12:08.927Z,23.70
2022-08-01T08:14:35.929Z,23.80
2022-08-01T08:17:03.362Z,23.80
2022-08-01T08:19:38.006Z,23.90
2022-08-01T08:22:06.740Z,24.00
2022-08-01T08:24:33.748Z,24.10
2022-08-01T08:27:01.098Z,24.20
2022-08-01T08:29:30.522Z,24.20
2022-08-01T08:31:57.324Z,24.30
2022-08-01T08:34:24.163Z,24.40
2022-08-01T08:36:50.972Z,24.40
2022-08-01T08:39:19.773Z,24.40
2022-08-01T08:41:49.313Z,24.50
2022-08-01T08:44:17.287Z,24.60
2022-08-01T08:46:45.696Z,24.80
2022-08-01T08:49:13.306Z,25.00
2022-08-01T08:51:42.233Z,25.00
2022-08-01T08:54:11.437Z,25.10
2022-08-01T08:56:38.420Z,25.20
2022-08-01T08:59:05.082Z,25.10
2022-08-01T09:01:35.961Z,25.20
2022-08-01T09:04:03.798Z,25.30
2022-08-01T09:06:32.418Z,25.40
2022-08-01T09:08:59.320Z,25.40
2022-08-01T09:11:26.664Z,25.50
2022-08-01T09:14:04.504Z,25.50
2022-08-01T09:16:32.101Z,25.50
2022-08-01T09:19:08.723Z,25.60
2022-08-01T09:21:57.104Z,25.80
2022-08-01T09:24:28.422Z,25.90
2022-08-01T09:26:58.482Z,25.80
2022-08-01T09:29:37.331Z,25.70
2022-08-01T09:32:06.254Z,25.70
2022-08-01T09:34:33.971Z,25.70
2022-08-01T09:37:03.157Z,25.90
2022-08-01T09:39:31.584Z,25.80
2022-08-01T09:41:59.612Z,25.60
2022-08-01T09:44:44.188Z,25.60
2022-08-01T09:47:15.661Z,25.40
2022-08-01T09:49:50.377Z,25.50
2022-08-01T09:52:19.929Z,25.70
2022-08-01T09:54:54.110Z,26.20
2022-08-01T09:57:22.185Z,26.50
2022-08-01T09:59:59.726Z,26.50
2022-08-01T10:02:28.774Z,26.70
2022-08-01T10:04:59.955Z,26.60
2022-08-01T10:07:42.850Z,26.50
2022-08-01T10:10:15.805Z,26.80
2022-08-01T10:12:44.476Z,26.90
2022-08-01T10:15:15.384Z,27.00
2022-08-01T10:17:50.698Z,27.00
2022-08-01T10:20:29.849Z,27.30
2022-08-01T10:22:59.517Z,27.40
2022-08-01T10:25:42.190Z,27.00
2022-08-01T10:28:23.621Z,26.90
2022-08-01T10:30:52.190Z,27.00
2022-08-01T10:33:52.231Z,27.40
2022-08-01T10:36:10.039Z,27.70
2022-08-01T10:38:37.482Z,28.20
2022-08-01T10:41:08.619Z,28.60
2022-08-01T10:43:36.391Z,28.90
2022-08-01T10:46:04.668Z,28.70
2022-08-01T10:48:40.472Z,28.50
2022-08-01T10:51:18.461Z,28.90
2022-08-01T10:53:50.915Z,28.90
2022-08-01T10:56:26.485Z,28.70
2022-08-01T10:59:02.257Z,29.00
2022-08-01T11:01:33.994Z,29.20
2022-08-01T11:04:05.994Z,29.20
2022-08-01T11:06:35.458Z,29.10
2022-08-01T11:09:05.872Z,29.30
2022-08-01T11:11:37.606Z,29.60
2022-08-01T11:14:08.064Z,29.50
2022-08-01T11:16:37.135Z,29.30
2022-08-01T11:19:04.990Z,29.80
2022-08-01T11:21:56.328Z,30.00
2022-08-01T11:24:50.721Z,30.00
2022-08-01T11:27:20.701Z,30.30
2022-08-01T11:30:09.105Z,30.70
2022-08-01T11:33:06.532Z,31.10
2022-08-01T11:35:37.091Z,30.80
2022-08-01T11:38:22.418Z,30.40
2022-08-01T11:41:09.109Z,30.00
2022-08-01T11:43:35.760Z,30.50
2022-08-01T11:46:03.069Z,30.70
2022-08-01T11:48:29.756Z,31.00
2022-08-01T11:50:57.895Z,31.30
2022-08-01T11:53:28.686Z,31.40
2022-08-01T11:55:55.735Z,31.30
2022-08-01T11:58:27.787Z,31.30
2022-08-01T12:00:58.879Z,31.10
2022-08-01T12:03:33.845Z,31.10
2022-08-01T12:06:00.997Z,31.50
2022-08-01T12:08:33.825Z,31.60
2022-08-01T12:11:02.370Z,31.60
2022-08-01T12:13:39.767Z,30.50
2022-08-01T12:16:10.505Z,29.40
2022-08-01T12:18:41.373Z,28.90
2022-08-01T12:21:08.030Z,29.40
2022-08-01T12:23:34.677Z,30.20
2022-08-01T12:26:02.526Z,30.80
2022-08-01T12:28:29.238Z,30.70
2022-08-01T12:30:56.460Z,30.70
2022-08-01T12:33:23.211Z,31.00
2022-08-01T12:35:49.895Z,31.40
2022-08-01T12:38:17.697Z,31.40
2022-08-01T12:40:45.947Z,31.60
2022-08-01T12:43:26.775Z,32.10
2022-08-01T12:45:57.284Z,32.60
2022-08-01T12:48:25.043Z,32.10
2022-08-01T12:50:53.190Z,31.40
2022-08-01T12:53:20.043Z,31.40
2022-08-01T12:55:58.102Z,31.50
2022-08-01T12:58:33.142Z,31.70
2022-08-01T13:01:04.792Z,32.00
2022-08-01T13:03:31.549Z,31.60
2022-08-01T13:05:59.218Z,31.00
2022-08-01T13:08:33.446Z,30.90
2022-08-01T13:11:05.728Z,31.30
2022-08-01T13:13:39.812Z,31.00
2022-08-01T13:16:07.235Z,31.30
2022-08-01T13:18:35.948Z,31.70
2022-08-01T13:21:10.084Z,31.90
2022-08-01T13:24:03.140Z,32.60
2022-08-01T13:26:38.478Z,32.40
2022-08-01T13:29:06.445Z,31.70
2022-08-01T13:31:34.370Z,31.70
2022-08-01T13:34:04.551Z,31.70
2022-08-01T13:36:32.119Z,31.30
2022-08-01T13:39:17.967Z,30.60
2022-08-01T13:41:45.117Z,30.10
2022-08-01T13:44:11.978Z,29.90
2022-08-01T13:46:39.409Z,30.00
2022-08-01T13:49:16.522Z,29.70
2022-08-01T13:51:43.516Z,29.50
2022-08-01T13:54:10.219Z,29.30
2022-08-01T13:56:36.967Z,29.40
2022-08-01T13:59:03.920Z,29.90
2022-08-01T14:01:34.145Z,30.70
2022-08-01T14:04:01.561Z,31.40
2022-08-01T14:06:28.301Z,31.70
2022-08-01T14:08:55.183Z,31.70
2022-08-01T14:11:21.945Z,31.10
2022-08-01T14:13:48.600Z,30.50
2022-08-01T14:16:15.504Z,29.90
2022-08-01T14:18:44.176Z,29.80
2022-08-01T14:21:11.601Z,30.50
2022-08-01T14:23:38.449Z,31.30
2022-08-01T14:26:11.552Z,31.70
2022-08-01T14:28:39.015Z,31.80
2022-08-01T14:31:07.155Z,31.20
2022-08-01T14:33:34.279Z,30.30
2022-08-01T14:36:20.631Z,29.90
2022-08-01T14:38:48.088Z,29.70
2022-08-01T14:41:15.118Z,29.80
2022-08-01T14:43:41.793Z,29.90
2022-08-01T14:46:10.772Z,30.20
2022-08-01T14:48:37.529Z,30.30
2022-08-01T14:51:05.159Z,30.00
2022-08-01T14:53:35.683Z,29.40
2022-08-01T14:56:06.262Z,29.30
2022-08-01T14:58:33.181Z,29.20
2022-08-01T15:00:59.869Z,28.90
2022-08-01T15:03:26.710Z,28.70
2022-08-01T15:05:53.396Z,28.50
2022-08-01T15:08:20.162Z,28.20
2022-08-01T15:10:46.998Z,28.20
2022-08-01T15:13:13.643Z,28.10
2022-08-01T15:15:40.285Z,27.90
2022-08-01T15:18:06.932Z,27.70
2022-08-01T15:20:34.016Z,27.50
2022-08-01T15:23:00.784Z,27.30
2022-08-01T15:25:41.236Z,27.10
2022-08-01T15:28:09.780Z,27.00
2022-08-01T15:30:36.497Z,27.10
2022-08-01T15:33:03.248Z,27.00
2022-08-01T15:35:30.003Z,26.90
2022-08-01T15:37:56.756Z,26.90
2022-08-01T15:40:23.427Z,26.80
2022-08-01T15:42:50.180Z,26.70
2022-08-01T15:45:44.507Z,26.70
2022-08-01T15:48:06.049Z,26.60
2022-08-01T15:50:32.794Z,26.50
2022-08-01T15:52:59.495Z,26.40
2022-08-01T15:55:26.140Z,26.60
2022-08-01T15:57:52.826Z,26.60
2022-08-01T16:00:19.498Z,26.60
2022-08-01T16:02:46.993Z,26.60
2022-08-01T16:05:13.734Z,26.70
2022-08-01T16:07:59.580Z,26.70
2022-08-01T16:10:29.120Z,26.70
2022-08-01T16:12:55.887Z,26.60
2022-08-01T16:15:23.011Z,26.60
2022-08-01T16:18:03.055Z,26.50
2022-08-01T16:20:29.978Z,26.20
2022-08-01T16:22:56.618Z,26.10
2022-08-01T16:25:23.494Z,26.00
2022-08-01T16:27:50.172Z,25.90
2022-08-01T16:30:16.988Z,25.90
2022-08-01T16:32:43.755Z,25.90
2022-08-01T16:35:13.601Z,25.90
2022-08-01T16:37:40.451Z,25.90
2022-08-01T16:40:07.281Z,25.80
2022-08-01T16:42:34.068Z,25.80
2022-08-01T16:45:02.396Z,25.70
2022-08-01T16:47:35.722Z,25.50
2022-08-01T16:50:02.519Z,25.40
2022-08-01T16:52:29.158Z,25.40
2022-08-01T16:54:57.987Z,25.30
2022-08-01T16:57:24.647Z,25.40
2022-08-01T16:59:51.314Z,25.40
2022-08-01T17:02:17.961Z,25.30
2022-08-01T17:04:44.658Z,25.20
2022-08-01T17:07:11.429Z,25.20
2022-08-01T17:09:42.943Z,25.10
2022-08-01T17:12:11.773Z,25.10
2022-08-01T17:14:39.873Z,25.10
2022-08-01T17:17:06.963Z,24.80
2022-08-01T17:19:35.276Z,24.50
2022-08-01T17:22:02.277Z,24.30
2022-08-01T17:24:29.115Z,23.90
2022-08-01T17:26:55.754Z,23.50
2022-08-01T17:29:22.542Z,23.10
2022-08-01T17:31:49.293Z,22.80
2022-08-01T17:34:16.729Z,22.60
2022-08-01T17:36:43.637Z,22.30
2022-08-01T17:39:12.329Z,22.20
2022-08-01T17:41:39.731Z,22.00
2022-08-01T17:44:06.767Z,22.00
2022-08-01T17:46:33.489Z,22.00
2022-08-01T17:49:04.528Z,22.00
2022-08-01T17:51:31.515Z,21.90
2022-08-01T17:53:58.238Z,21.90
2022-08-01T17:56:26.195Z,21.80
2022-08-01T17:58:52.969Z,21.70
2022-08-01T18:01:19.970Z,21.50
2022-08-01T18:03:47.202Z,21.40
2022-08-01T18:06:23.162Z,21.20
2022-08-01T18:08:50.817Z,21.10
2022-08-01T18:11:22.418Z,21.10
2022-08-01T18:13:51.395Z,21.10
2022-08-01T18:16:18.772Z,21.00
2022-08-01T18:18:45.594Z,20.90
2022-08-01T18:21:12.376Z,20.80
2022-08-01T18:23:39.150Z,20.70
2022-08-01T18:26:08.263Z,20.60
2022-08-01T18:28:46.708Z,20.50
2022-08-01T18:31:16.697Z,20.40
2022-08-01T18:33:43.829Z,20.30
2022-08-01T18:36:14.105Z,20.20
2022-08-01T18:38:55.789Z,20.20
2022-08-01T18:41:22.970Z,20.10
2022-08-01T18:43:49.701Z,20.00
2022-08-01T18:46:16.491Z,20.00
2022-08-01T18:48:43.432Z,19.80
2022-08-01T18:51:11.734Z,19.70
2022-08-01T18:57:31.857Z,19.50
2022-08-01T18:59:58.721Z,19.40
2022-08-01T19:02:25.337Z,19.40
2022-08-01T19:04:51.962Z,19.40
2022-08-01T19:07:39.292Z,19.40
2022-08-01T19:10:05.659Z,19.30
2022-08-01T19:12:32.451Z,19.20
2022-08-01T19:15:04.350Z,19.20
2022-08-01T19:17:31.952Z,19.20
2022-08-01T19:19:58.854Z,19.20
2022-08-01T19:22:25.495Z,19.20
2022-08-01T19:24:52.447Z,19.10
2022-08-01T19:27:21.837Z,19.00
2022-08-01T19:29:52.146Z,19.00
2022-08-01T19:32:19.217Z,18.90
2022-08-01T19:34:54.605Z,18.70
2022-08-01T19:37:26.772Z,18.50
2022-08-01T19:39:54.230Z,18.20
2022-08-01T19:42:23.898Z,17.90
2022-08-01T19:44:51.037Z,17.50
2022-08-01T19:47:18.036Z,17.40
2022-08-01T19:49:45.051Z,17.30
2022-08-01T19:52:13.656Z,17.40
2022-08-01T19:54:45.478Z,17.30
2022-08-01T19:57:13.240Z,17.10
2022-08-01T19:59:40.129Z,17.00
2022-08-01T20:02:07.755Z,17.00
2022-08-01T20:04:34.746Z,16.90
2022-08-01T20:07:03.034Z,16.80
2022-08-01T20:09:30.989Z,16.80
2022-08-01T20:11:57.652Z,16.80
2022-08-01T20:14:25.113Z,16.80
2022-08-01T20:16:53.077Z,16.70
2022-08-01T20:19:20.144Z,16.70
2022-08-01T20:22:02.588Z,16.80
2022-08-01T20:24:31.934Z,16.80
2022-08-01T20:26:59.522Z,16.70
2022-08-01T20:29:27.868Z,16.60
2022-08-01T20:31:55.083Z,16.60
2022-08-01T20:34:22.746Z,16.60
2022-08-01T20:36:56.904Z,16.50
2022-08-01T20:39:24.140Z,16.50
2022-08-01T20:42:00.026Z,16.50
2022-08-01T20:44:27.262Z,16.60
2022-08-01T20:46:54.260Z,16.60
2022-08-01T20:49:22.183Z,16.60
2022-08-01T20:51:50.690Z,16.60
2022-08-01T20:54:17.504Z,16.60
2022-08-01T20:57:04.800Z,16.60
2022-08-01T20:59:55.773Z,16.60
2022-08-01T21:02:30.489Z,16.60
2022-08-01T21:04:58.159Z,16.60
2022-08-01T21:07:26.799Z,16.50
2022-08-01T21:10:09.762Z,16.50
2022-08-01T21:12:56.691Z,16.40
2022-08-01T21:15:31.552Z,16.30
2022-08-01T21:17:58.213Z,16.20
2022-08-01T21:20:27.779Z,16.20
2022-08-01T21:23:03.624Z,16.10
2022-08-01T21:25:32.847Z,16.10
2022-08-01T21:28:00.828Z,16.10
2022-08-01T21:30:29.376Z,16.10
2022-08-01T21:32:56.270Z,16.00
2022-08-01T21:35:24.722Z,16.00
2022-08-01T21:37:53.009Z,16.10
2022-08-01T21:40:20.685Z,16.00
2022-08-01T21:42:48.637Z,15.90
2022-08-01T21:45:15.374Z,15.80
2022-08-01T21:47:42.775Z,15.70
2022-08-01T21:50:09.533Z,15.70
2022-08-01T21:52:46.987Z,15.70
2022-08-01T21:55:36.454Z,15.70
2022-08-01T21:58:11.227Z,15.70
2022-08-01T22:00:40.057Z,15.70
2022-08-01T22:03:28.776Z,15.80
2022-08-01T22:05:55.898Z,15.80
2022-08-01T22:08:31.967Z,15.80
2022-08-01T22:10:59.950Z,15.70
2022-08-01T22:13:26.756Z,15.70
2022-08-01T22:15:55.621Z,15.70
2022-08-01T22:18:22.294Z,15.60
2022-08-01T22:20:49.173Z,15.60
2022-08-01T22:23:16.673Z,15.60
2022-08-01T22:25:45.228Z,15.60
2022-08-01T22:28:15.330Z,15.60
2022-08-01T22:30:42.193Z,15.60
2022-08-01T22:33:16.468Z,15.60
2022-08-01T22:35:45.597Z,15.60
2022-08-01T22:38:12.359Z,15.60
2022-08-01T22:40:39.949Z,15.60
2022-08-01T22:43:12.515Z,15.60
2022-08-01T22:45:59.919Z,15.60
2022-08-01T22:48:34.740Z,15.60
2022-08-01T22:51:24.861Z,15.60
2022-08-01T22:53:54.779Z,15.50
2022-08-01T22:56:22.286Z,15.50
2022-08-01T22:58:49.033Z,15.60
2022-08-01T23:01:21.051Z,15.50
2022-08-01T23:03:50.332Z,15.50
2022-08-01T23:06:35.980Z,15.50
2022-08-01T23:09:02.867Z,15.50
2022-08-01T23:11:29.859Z,15.40
2022-08-01T23:14:00.068Z,15.40
2022-08-01T23:16:28.376Z,15.40
2022-08-01T23:18:55.842Z,15.50
2022-08-01T23:21:22.541Z,15.50
2022-08-01T23:23:49.547Z,15.60
2022-08-01T23:26:16.386Z,15.50
2022-08-01T23:28:43.616Z,15.60
2022-08-01T23:31:11.127Z,15.50
2022-08-01T23:33:37.814Z,15.50
2022-08-01T23:36:04.657Z,15.50
2022-08-01T23:38:31.318Z,15.50
2022-08-01T23:40:57.996Z,15.40
2022-08-01T23:43:24.759Z,15.40
2022-08-01T23:46:04.021Z,15.40
2022-08-01T23:48:35.749Z,15.40
2022-08-01T23:51:03.281Z,15.40
2022-08-01T23:53:31.100Z,15.30
2022-08-01T23:55:58.584Z,15.30
2022-08-01T23:58:25.320Z,15.40
